Alamo, Nevada Weather observations

Data are for observation ending at time listed.
 Day   Time    Ave.   Ave.  Ave.  Vector   Max.   Stn.    Total    Solar   Ave.  
  of    of     Air    Rel.  Wind   Wind    Wind   Baro.  Precip.   Rad.    Soil  
Year   Day     Temp.  Hum.  Speed  Dir.    Gust   Pres.                    Temp. 
2020   (PST)    F      %     mph   deg.    mph     mb.     in.     W/m2     F   
------------------------------------------------------------------------------
 194   16:50  103.9     9    5.5   222     12.4   893.9    0.00     509    98.4
 194   17:00  103.9     9    6.4   209     13.6   893.9    0.00     468    97.8
 194   17:10  103.5     9    4.4   220     11.2   893.8    0.00     427    97.2
 194   17:20  103.6     9    5.1   212     12.1   893.8    0.00     387    96.6
 194   17:30  103.6     9    4.3   217     10.1   893.8    0.00     349    96.1
 194   17:40  103.4    10    2.6   216     11.2   893.8    0.00     309    95.6
 194   17:50  103.4    10    3.2   210      7.3   893.7    0.00     269    95.1
 194   18:00  102.9    10    4.3   211      9.7   893.6    0.00     232    94.7
 194   18:10  103.0    10    3.2   222      8.6   893.6    0.00     197    94.3
 194   18:20  102.6    10    4.7   231     13.2   893.6    0.00     163    93.9
 194   18:30  102.3    10    4.5   219      9.6   893.6    0.00     127    93.6
 194   18:40  101.4    10    3.0   219      6.9   893.7    0.00      90    93.2
 194   18:50  100.5    10    3.2   212      6.0   893.7    0.00      30    92.9
 194   19:00  100.6     9    3.9   210     11.2   893.8    0.00      11    92.6
 194   19:10   99.2    10    2.3   199      5.8   893.8    0.00       7    92.3
 194   19:20   98.5    10    2.0   210      5.1   893.9    0.00       0    92.0
 194   19:30   96.5    11    2.5   212      8.7   893.9    0.00       0    91.6
 194   19:40   98.6    10    3.5   214      8.8   893.9    0.00       0    91.3
 194   19:50   97.9    11    2.1   200      8.0   893.9    0.00       0    91.0
 194   20:00   97.1    11    1.6   203      5.9   893.9    0.00       0    90.6
 194   20:10   96.5    11    2.8   208      5.9   894.1    0.00       0    90.3
 194   20:20   97.4    10    2.5   207      6.7   894.2    0.00       0    90.1
 194   20:30   95.9    12    1.5   202      4.5   894.2    0.00       0    89.8
 194   20:40   92.7    14    0.4   189      3.1   894.3    0.00       0    89.5
 194   20:50   89.8    15    0.3   202      1.9   894.4    0.00       0    89.2
 194   21:00   88.2    17    0.0    59      0.8   894.4    0.00       0    88.9
 194   21:10   87.1    18    0.2   299      1.1   894.5    0.00       0    88.6
 194   21:20   86.4    18    0.0   123      0.7   894.5    0.00       0    88.3
 194   21:30   85.9    18    0.0     0      0.0   894.5    0.00       0    88.0
 194   21:40   85.2    19    0.2    52      1.2   894.6    0.00       0    87.7
 194   21:50   84.7    20    0.1    68      0.9   894.6    0.00       0    87.3
 194   22:00   84.1    21    0.3    54      1.6   894.6    0.00       0    87.1
 194   22:10   83.7    21    0.3    42      1.2   894.5    0.00       0    86.8
 194   22:20   83.3    22    0.8    25      2.3   894.5    0.00       0    86.5
 194   22:30   83.6    21    1.3   354      3.0   894.7    0.00       0    86.2
 194   22:40   82.8    22    0.7    37      2.0   894.8    0.00       0    86.0
 194   22:50   82.6    22    0.8    48      3.3   894.9    0.00       0    85.7
 194   23:00   84.5    20    0.7   202      3.7   894.7    0.00       0    85.5
 194   23:10   85.6    18    0.5   189      3.9   894.4    0.00       0    85.3
 194   23:20   88.6    15    1.7   197      5.9   894.3    0.00       0    85.1
 194   23:30   92.0    13    3.2   203      9.2   894.4    0.00       0    84.9
 194   23:40   93.4    13    3.6   205     10.1   894.2    0.00       0    84.8
 194   23:50   93.2    13    2.7   205      9.8   894.3    0.00       0    84.7
 195    0:00   93.3    13    3.6   209     12.0   894.5    0.00       0    84.7
 195    0:10   92.3    14    1.7   185      7.3   894.7    0.00       0    84.7
 195    0:20   89.6    15    0.4   152      3.1   894.7    0.00       0    84.7
 195    0:30   88.6    15    0.2   121      1.6   894.7    0.00       0    84.6
 195    0:40   88.0    16    0.3   206      2.5   894.6    0.00       0    84.5
 195    0:50   85.5    19    0.8   196      2.9   894.6    0.00       0    84.3
 195    1:00   86.3    16    0.2   147      1.7   894.5    0.00       0    84.2
 195    1:10   86.1    17    0.3   180      1.3   894.4    0.00       0    84.0
 195    1:20   85.0    17    0.2   110      0.8   894.4    0.00       0    83.9
 195    1:30   85.2    17    0.3   126      1.5   894.4    0.00       0    83.7
 195    1:40   85.4    16    0.4   127      2.2   894.4    0.00       0    83.5
 195    1:50   83.5    19    0.2   236      1.2   894.4    0.00       0    83.3
 195    2:00   81.5    22    0.4   256      1.8   894.4    0.00       0    83.2
 195    2:10   80.7    22    1.2   212      2.6   894.4    0.00       0    83.0
 195    2:20   80.4    22    0.3   181      1.7   893.9    0.00       0    82.8
 195    2:30   79.6    23    0.1    31      1.2   894.4    0.00       0    82.6
 195    2:40   79.1    24    0.4   217      1.2   894.4    0.00       0    82.4
 195    2:50   78.6    25    0.3   289      1.2   894.0    0.00       0    82.3
 195    3:00   78.0    25    0.1   301      1.2   893.2    0.00       0    82.1
 195    3:10   77.4    26    0.5   216      2.3   893.0    0.00       0    81.9
 195    3:20   77.8    25    0.5   216      1.8   893.0    0.00       0    81.7
 195    3:30   77.7    25    0.9   272      1.5   893.3    0.00       0    81.6
 195    3:40   77.2    27    1.2    25      2.6   893.4    0.00       0    81.4
 195    3:50   75.4    30    0.5    46      1.9   893.7    0.00       0    81.2
 195    4:00   74.6    30    0.5   226      1.8   894.5    0.00       0    81.1
 195    4:10   74.3    31    0.1   341      0.9   895.0    0.00       0    80.9
 195    4:20   74.0    31    0.6   342      2.8   895.1    0.00       0    80.7
 195    4:30   73.5    31    1.6    37      3.5   894.7    0.00       0    80.5
 195    4:40   73.2    31    2.0    36      3.6   894.6    0.00       0    80.4
 195    4:50   73.6    30    1.5   303      2.9   894.5    0.00       7    80.2
 195    5:00   73.3    30    1.6    28      3.1   893.9    0.00      10    80.1
 195    5:10   72.8    31    1.0    38      2.5   893.9    0.00      13    79.9
 195    5:20   72.0    32    0.9     8      2.3   893.9    0.00      33    79.8
 195    5:30   72.8    32    0.9    49      2.2   893.9    0.00      89    79.6
 195    5:40   75.0    32    0.3    38      1.2   894.1    0.00      70    79.5
 195    5:50   75.3    32    0.9   234      2.9   894.0    0.00      68    79.3
 195    6:00   77.0    31    1.3    22      4.8   894.0    0.00     120    79.3
 195    6:10   77.2    29    1.0    34      3.3   894.0    0.00      93    79.3
 195    6:20   80.1    28    0.6   321      1.6   894.0    0.00     252    79.5
 195    6:30   81.2    28    0.4    36      1.3   894.0    0.00     185    79.8
 195    6:40   80.4    30    0.6   222      2.2   894.0    0.00      55    80.1
 195    6:50   80.8    31    0.5   189      1.5   893.9    0.00      40    80.5
 195    7:00   81.1    30    0.8   210      3.0   894.0    0.00      40    80.9
 195    7:10   82.9    33    0.5   209      2.0   893.9    0.00      50    81.2
 195    7:20   84.5    26    0.5   208      1.8   893.9    0.00      84    81.3
 195    7:30   86.3    26    0.1   195      1.1   893.9    0.00      53    81.3
 195    7:40   87.8    27    0.6   196      2.1   893.9    0.00      40    81.3
 195    7:50   89.1    27    0.5   199      2.0   893.9    0.00      40    81.3
 195    8:00   90.0    25    0.2   166      1.3   893.9    0.00      40    81.3
 195    8:10   92.2    22    0.2   107      1.3   893.8    0.00      40    81.3
 195    8:20   93.4    19    1.0   205      6.8   893.8    0.00      41    81.4
 195    8:30   93.2    19    0.7   194      3.4   893.8    0.00      42    81.4
 195    8:40   93.7    18    0.9   182      2.6   893.8    0.00      43    81.4
 195    8:50   94.5    15    2.1   200     10.0   893.8    0.00      46    81.5
 195    9:00   95.6    14    2.7   205     10.1   893.7    0.00      41    81.5
 195    9:10   96.5    14    2.1   206      5.9   893.7    0.00      43    81.6
 195    9:20   96.4    13    2.9   206      9.7   893.7    0.00      41    81.7
 195    9:30   96.4    13    3.1   208      9.6   893.6    0.00      42    81.8
 195    9:40   97.4    12    4.5   215      9.8   893.6    0.00      48    81.9
 195    9:50   97.9    12    3.5   212      9.5   893.5    0.00      59    82.0
 195   10:00   97.6    13    1.6   210      5.9   893.5    0.00     275    82.2
 195   10:10   97.6    14    1.1   204      5.0   893.4    0.00      84    82.3
 195   10:20   97.8    15    1.5   189      4.7   893.4    0.00      83    82.4
 195   10:30   98.0    15    1.7   201      4.5   893.4    0.00      98    82.6
 195   10:40   98.1    14    1.7   186      7.7   893.4    0.00      55    82.7
 195   10:50   98.5    15    2.2   197      8.8   893.3    0.00      74    82.9
 195   11:00   99.0    15    1.7   210      5.2   893.4    0.00      76    83.1
 195   11:10   99.0    15    1.6   191      6.3   893.3    0.00     133    83.3
 195   11:20   99.5    14    1.3   195      5.7   893.2    0.00     615    83.6
 195   11:30  100.2    14    1.7   195      8.8   893.1    0.00    1128    83.9
 195   11:40  100.5    14    1.3   192      4.7   893.1    0.00    1135    84.4
 195   11:50  101.3    11    3.8   228      9.9   892.9    0.00    1143    85.0
 195   12:00  102.2    12    2.1   198      7.2   892.8    0.00    1146    85.6
 195   12:10  102.2    12    4.2   206      9.6   892.7    0.00    1153    86.6
 195   12:20  102.5    12    2.1   199      8.0   892.4    0.00    1151    88.1
 195   12:30  102.8    12    4.3   210     15.4   892.7    0.00    1148    89.6
 195   12:40  103.2    10    4.7   206     12.3   892.8    0.00    1147    91.4
 195   12:50  103.5    11    4.3   208     10.3   893.0    0.00    1140    93.0
 195   13:00  103.4    11    3.1   211     13.2   893.5    0.00    1132    94.4
 195   13:10  103.4    11    5.3   211     18.1   893.5    0.00    1118    95.6
 195   13:20  103.6    10    6.3   217     18.0   893.3    0.00    1106    96.9
 195   13:30  103.7    10    5.4   203     16.7   893.1    0.00    1091    97.9
 195   13:40  103.4    11    3.2   208      9.3   892.8    0.00    1074    98.8
 195   13:50  103.9    10    6.0   209     14.4   892.7    0.00    1054    99.6
 195   14:00  104.0     9    6.6   209     16.7   892.7    0.00    1046    100.4
 195   14:10  104.0     9    6.5   218     18.7   892.7    0.00    1023    101.1
 195   14:20  103.9     9    7.2   222     17.5   892.7    0.00     996    101.6
 195   14:30  103.2     9    6.7   213     19.4   892.7    0.00     977    102.1
 195   14:40  103.2     9    7.4   215     15.9   892.7    0.00     952    102.5
 195   14:50  103.4    10    4.8   230     11.1   892.6    0.00     926    102.8
 195   15:00  103.5     9    6.8   218     13.6   892.7    0.00     894    103.2
 195   15:10  103.6     9    5.7   226     15.1   892.6    0.00     864    103.4
 195   15:20  103.1     9    6.8   223     13.9   892.5    0.00     831    103.7
 195   15:30  102.8    10    5.3   210     13.1   892.5    0.00     797    104.0
 195   15:40  102.4    10    4.3   196     11.4   892.4    0.00     763    104.1
 195   15:50  102.1    10    5.6   208     15.6   892.3    0.00     730    104.0
 195   16:00  102.3    10    4.4   204     11.8   892.2    0.00     693    103.8
 195   16:10  101.8    11    4.1   202     11.9   892.2    0.00     658    103.1
 195   16:20  102.1    10    3.9   221     10.7   892.1    0.00     618    102.1
 195   16:30  102.1    11    3.7   204     11.0   892.0    0.00     579    101.2
 195   16:40  101.7    10    5.8   215     12.9   892.0    0.00     541    100.3

Return to Alamo, Nevada graphs page.


Western Regional Climate Center,wrcc@dri.edu